Time;durP1;ratioP1;P1;durP2;ratioP2;P2;SDS_P1;SDS_P2;PMS_P1;PMS_P2;Temp;Humidity;BMP_temperature;BMP_pressure;BME280_temperature;BME280_humidity;BME280_pressure;Samples;Min_cycle;Max_cycle;Signal;HPM_P1;HPM_P2
2022/09/22 00:01:46;;;;;;;;;;;10.50;95.80;;;;;;5085799;28;20363;-85
2022/09/22 00:04:14;;;;;;;;;;;10.50;95.80;;;;;;5086727;28;19971;-87
2022/09/22 00:06:42;;;;;;;;;;;10.50;95.80;;;;;;5083250;28;20106;-87
2022/09/22 00:09:10;;;;;;;;;;;10.40;95.80;;;;;;5068326;28;20278;-86
2022/09/22 00:11:39;;;;;;;;;;;10.40;95.70;;;;;;5065525;28;19924;-86
2022/09/22 00:14:07;;;;;;;;;;;10.40;95.80;;;;;;5080733;28;20504;-88
2022/09/22 00:16:35;;;;;;;;;;;10.40;95.90;;;;;;5065823;28;20000;-88
2022/09/22 00:19:04;;;;;;;;;;;10.40;95.80;;;;;;5106186;28;19969;-88
2022/09/22 00:21:33;;;;;;;;;;;10.40;95.80;;;;;;5101312;28;19931;-88
2022/09/22 00:24:01;;;;;;;;;;;10.40;95.90;;;;;;5063564;28;19963;-88
2022/09/22 00:26:27;;;;;;;;;;;10.40;95.90;;;;;;5085942;28;20024;-88
2022/09/22 00:28:54;;;;;;;;;;;10.30;95.80;;;;;;5070571;28;19932;-87
2022/09/22 00:31:22;;;;;;;;;;;10.30;95.80;;;;;;5086691;28;19932;-86
2022/09/22 00:33:49;;;;;;;;;;;10.30;95.80;;;;;;5086479;28;19931;-86
2022/09/22 00:36:17;;;;;;;;;;;10.30;95.80;;;;;;5075112;28;20019;-85
2022/09/22 00:38:45;;;;;;;;;;;10.20;95.80;;;;;;5092411;28;20481;-88
2022/09/22 00:41:15;;;;;;;;;;;10.10;95.80;;;;;;5071734;28;19932;-87
2022/09/22 00:43:43;;;;;;;;;;;10.20;95.90;;;;;;5089808;28;20449;-87
2022/09/22 00:46:13;;;;;;;;;;;10.10;95.90;;;;;;5107609;27;19936;-88
2022/09/22 00:48:43;;;;;;;;;;;10.10;96.00;;;;;;5088384;28;19975;-88
2022/09/22 00:51:11;;;;;;;;;;;10.10;96.00;;;;;;5074210;28;19932;-89
2022/09/22 00:53:38;;;;;;;;;;;10.10;96.00;;;;;;5088270;28;19931;-87
2022/09/22 00:56:08;;;;;;;;;;;10.10;95.90;;;;;;5107459;27;19964;-86
2022/09/22 00:58:37;;;;;;;;;;;10.10;95.90;;;;;;5081010;28;19928;-87
2022/09/22 01:01:04;;;;;;;;;;;10.10;95.90;;;;;;5083146;28;20931;-86
2022/09/22 01:03:31;;;;;;;;;;;10.10;95.90;;;;;;5071126;28;20547;-87
2022/09/22 01:06:00;;;;;;;;;;;10.10;95.80;;;;;;5102831;27;19974;-89
2022/09/22 01:08:28;;;;;;;;;;;10.00;95.90;;;;;;5086507;28;21452;-87
2022/09/22 01:10:56;;;;;;;;;;;10.00;95.90;;;;;;5072280;28;19966;-87
2022/09/22 01:13:26;;;;;;;;;;;9.90;96.40;;;;;;5065324;28;19946;-88
2022/09/22 01:16:03;;;;;;;;;;;10.00;95.90;;;;;;5086331;28;19928;-88
2022/09/22 01:18:37;;;;;;;;;;;9.90;96.50;;;;;;5093942;28;19956;-88
2022/09/22 01:21:13;;;;;;;;;;;10.00;96.00;;;;;;5089778;28;19932;-87
2022/09/22 01:23:59;;;;;;;;;;;9.90;96.40;;;;;;5074532;28;19979;-88
2022/09/22 01:26:41;;;;;;;;;;;9.80;96.40;;;;;;5087093;28;19927;-87
2022/09/22 01:29:21;;;;;;;;;;;9.90;96.50;;;;;;5085289;28;20421;-88
2022/09/22 01:31:52;;;;;;;;;;;9.80;96.40;;;;;;5082564;28;19938;-85
2022/09/22 01:34:24;;;;;;;;;;;9.80;96.50;;;;;;5074292;28;19977;-86
2022/09/22 01:36:55;;;;;;;;;;;9.80;96.50;;;;;;5107331;27;20290;-88
2022/09/22 01:39:26;;;;;;;;;;;9.70;96.50;;;;;;5088192;28;19959;-86
2022/09/22 01:41:57;;;;;;;;;;;9.70;96.50;;;;;;5067987;28;20023;-87
2022/09/22 01:44:28;;;;;;;;;;;9.70;96.60;;;;;;5078907;28;19924;-88
2022/09/22 01:47:00;;;;;;;;;;;9.60;96.60;;;;;;5085761;28;19924;-87
2022/09/22 01:49:29;;;;;;;;;;;9.60;96.60;;;;;;5104114;27;20019;-88
2022/09/22 01:51:58;;;;;;;;;;;9.70;96.70;;;;;;5081954;28;19959;-86
2022/09/22 01:54:27;;;;;;;;;;;9.60;96.70;;;;;;5098317;27;19962;-86
2022/09/22 01:56:55;;;;;;;;;;;9.60;96.70;;;;;;5073484;28;19924;-88
2022/09/22 01:59:25;;;;;;;;;;;9.50;96.70;;;;;;5105931;28;19948;-88
2022/09/22 02:01:55;;;;;;;;;;;9.60;96.80;;;;;;5086801;28;19967;-88
2022/09/22 02:04:26;;;;;;;;;;;9.50;96.70;;;;;;5081267;28;19929;-87
2022/09/22 02:06:56;;;;;;;;;;;9.50;96.70;;;;;;5093381;28;20027;-87
2022/09/22 02:09:24;;;;;;;;;;;9.50;96.70;;;;;;5081214;28;20605;-86
2022/09/22 02:11:51;;;;;;;;;;;9.50;96.60;;;;;;5088563;28;20441;-87
2022/09/22 02:14:21;;;;;;;;;;;9.50;96.60;;;;;;5081904;28;19932;-87
2022/09/22 02:16:48;;;;;;;;;;;9.50;96.60;;;;;;5068361;28;20018;-88
2022/09/22 02:19:17;;;;;;;;;;;9.50;96.60;;;;;;5072576;28;19924;-87
2022/09/22 02:21:46;;;;;;;;;;;9.50;96.60;;;;;;5088778;28;20015;-86
2022/09/22 02:24:31;;;;;;;;;;;9.50;96.50;;;;;;5090653;28;20417;-87
2022/09/22 02:26:58;;;;;;;;;;;9.50;96.50;;;;;;5088520;28;19933;-88
2022/09/22 02:29:26;;;;;;;;;;;9.50;96.50;;;;;;5090625;28;20301;-86
2022/09/22 02:31:54;;;;;;;;;;;9.50;96.50;;;;;;5074338;28;20020;-86
2022/09/22 02:34:21;;;;;;;;;;;9.40;96.60;;;;;;5102556;27;19928;-87
2022/09/22 02:36:54;;;;;;;;;;;9.40;96.70;;;;;;5072046;28;19931;-88
2022/09/22 02:39:25;;;;;;;;;;;9.40;96.60;;;;;;5089135;28;20042;-87
2022/09/22 02:41:57;;;;;;;;;;;9.40;96.60;;;;;;5110441;27;20018;-87
2022/09/22 02:44:26;;;;;;;;;;;9.40;96.50;;;;;;5085937;28;19924;-86
2022/09/22 02:46:55;;;;;;;;;;;9.40;96.60;;;;;;5085085;28;20671;-87
2022/09/22 02:49:23;;;;;;;;;;;9.40;96.50;;;;;;5091427;28;20406;-87
2022/09/22 02:51:52;;;;;;;;;;;9.40;96.60;;;;;;5092393;28;20557;-88
2022/09/22 02:54:19;;;;;;;;;;;9.50;96.60;;;;;;5072962;28;19966;-88
2022/09/22 02:56:46;;;;;;;;;;;9.30;96.60;;;;;;5093211;28;20443;-88
2022/09/22 02:59:13;;;;;;;;;;;9.30;96.70;;;;;;5073076;28;19938;-88
2022/09/22 03:01:39;;;;;;;;;;;9.20;97.00;;;;;;5093656;28;19966;-88
2022/09/22 03:04:06;;;;;;;;;;;9.20;96.80;;;;;;5077044;28;19931;-87
2022/09/22 03:06:33;;;;;;;;;;;9.20;96.80;;;;;;5074350;28;19936;-87
2022/09/22 03:09:01;;;;;;;;;;;9.10;96.90;;;;;;5083729;28;20003;-87
2022/09/22 03:11:28;;;;;;;;;;;9.20;96.90;;;;;;5074262;28;20014;-86
2022/09/22 03:13:55;;;;;;;;;;;9.10;96.90;;;;;;5081680;28;19932;-88
2022/09/22 03:16:22;;;;;;;;;;;9.10;96.90;;;;;;5077378;28;19935;-88
2022/09/22 03:18:49;;;;;;;;;;;9.20;96.90;;;;;;5087421;28;20011;-88
2022/09/22 03:21:15;;;;;;;;;;;9.10;96.80;;;;;;5092089;28;19931;-88
2022/09/22 03:23:42;;;;;;;;;;;9.10;96.80;;;;;;5067924;28;19963;-85
2022/09/22 03:26:10;;;;;;;;;;;9.10;96.70;;;;;;5089210;28;20446;-87
2022/09/22 03:28:37;;;;;;;;;;;9.10;96.70;;;;;;5067809;28;20019;-87
2022/09/22 03:31:04;;;;;;;;;;;9.10;96.70;;;;;;5070760;28;19927;-86
2022/09/22 03:33:31;;;;;;;;;;;9.10;96.70;;;;;;5080316;28;19989;-87
2022/09/22 03:35:58;;;;;;;;;;;9.10;96.60;;;;;;5107426;27;20336;-87
2022/09/22 03:38:24;;;;;;;;;;;9.00;96.60;;;;;;5087999;28;19935;-87
2022/09/22 03:40:52;;;;;;;;;;;9.00;96.60;;;;;;5065189;28;19974;-88
2022/09/22 03:43:20;;;;;;;;;;;9.00;96.60;;;;;;5090881;28;19924;-87
2022/09/22 03:45:47;;;;;;;;;;;9.00;96.70;;;;;;5088129;28;19928;-87
2022/09/22 03:48:14;;;;;;;;;;;9.00;96.80;;;;;;5068474;28;20048;-87
2022/09/22 03:50:40;;;;;;;;;;;9.00;96.80;;;;;;5070465;28;20017;-85
2022/09/22 03:53:08;;;;;;;;;;;9.00;96.80;;;;;;5096760;28;19924;-87
2022/09/22 03:55:34;;;;;;;;;;;9.00;96.80;;;;;;5075318;28;19932;-88
2022/09/22 03:58:01;;;;;;;;;;;8.90;96.70;;;;;;5088482;28;19930;-88
2022/09/22 04:00:30;;;;;;;;;;;8.90;96.70;;;;;;5087535;28;19998;-88
2022/09/22 04:02:56;;;;;;;;;;;8.90;96.80;;;;;;5067931;28;19924;-88
2022/09/22 04:05:23;;;;;;;;;;;8.90;96.80;;;;;;5067403;28;20012;-88
2022/09/22 04:07:50;;;;;;;;;;;8.90;96.80;;;;;;5090881;28;19924;-88
2022/09/22 04:10:17;;;;;;;;;;;8.90;96.80;;;;;;5065663;28;19955;-88
2022/09/22 04:12:44;;;;;;;;;;;8.80;96.80;;;;;;5080914;28;19928;-86
2022/09/22 04:15:11;;;;;;;;;;;8.80;96.80;;;;;;5083569;28;20035;-85
2022/09/22 04:17:39;;;;;;;;;;;8.90;96.90;;;;;;5065535;28;19924;-87
2022/09/22 04:20:07;;;;;;;;;;;8.90;96.90;;;;;;5076064;28;19967;-87
2022/09/22 04:22:34;;;;;;;;;;;8.80;96.80;;;;;;5087357;28;20322;-88
2022/09/22 04:25:00;;;;;;;;;;;8.80;96.80;;;;;;5087689;28;20015;-85
2022/09/22 04:27:27;;;;;;;;;;;8.80;96.80;;;;;;5071710;28;19947;-79
2022/09/22 04:29:54;;;;;;;;;;;8.80;96.90;;;;;;5072469;28;20028;-82
2022/09/22 04:32:21;;;;;;;;;;;8.80;96.90;;;;;;5075314;28;20382;-85
2022/09/22 04:34:49;;;;;;;;;;;8.70;96.80;;;;;;5097031;28;19970;-84
2022/09/22 04:37:16;;;;;;;;;;;8.70;96.80;;;;;;5091464;28;19923;-84
2022/09/22 04:39:43;;;;;;;;;;;8.80;96.80;;;;;;5078209;28;20007;-84
2022/09/22 04:42:10;;;;;;;;;;;8.80;96.70;;;;;;5096033;28;20374;-86
2022/09/22 04:44:37;;;;;;;;;;;8.70;96.70;;;;;;5082886;28;20284;-85
2022/09/22 04:47:04;;;;;;;;;;;8.80;96.70;;;;;;5061766;28;19932;-86
2022/09/22 04:49:31;;;;;;;;;;;8.70;96.70;;;;;;5091788;28;19939;-87
2022/09/22 04:51:59;;;;;;;;;;;8.70;96.70;;;;;;5061177;28;19959;-85
2022/09/22 04:54:26;;;;;;;;;;;8.60;96.80;;;;;;5085571;28;19946;-85
2022/09/22 04:56:53;;;;;;;;;;;8.70;96.70;;;;;;5092514;28;20163;-86
2022/09/22 04:59:19;;;;;;;;;;;8.60;96.70;;;;;;5084974;28;20009;-83
2022/09/22 05:01:46;;;;;;;;;;;8.60;96.70;;;;;;5054181;28;19916;-85
2022/09/22 05:04:13;;;;;;;;;;;8.60;96.70;;;;;;5065521;28;19931;-89
2022/09/22 05:06:41;;;;;;;;;;;8.60;96.70;;;;;;5074375;28;19930;-84
2022/09/22 05:09:09;;;;;;;;;;;8.60;96.70;;;;;;5078511;28;19924;-85
2022/09/22 05:11:35;;;;;;;;;;;8.60;96.70;;;;;;5072002;28;19956;-87
2022/09/22 05:14:02;;;;;;;;;;;8.60;96.70;;;;;;5064707;28;19939;-82
2022/09/22 05:16:31;;;;;;;;;;;8.50;96.90;;;;;;5070804;28;20434;-87
2022/09/22 05:18:57;;;;;;;;;;;8.50;96.60;;;;;;5088189;28;20011;-85
2022/09/22 05:21:25;;;;;;;;;;;8.50;96.60;;;;;;5068745;28;20007;-86
2022/09/22 05:23:52;;;;;;;;;;;8.50;97.00;;;;;;5087470;28;20243;-87
2022/09/22 05:26:20;;;;;;;;;;;8.50;96.70;;;;;;5079755;28;20442;-87
2022/09/22 05:28:49;;;;;;;;;;;8.50;96.70;;;;;;5095584;28;19931;-87
2022/09/22 05:31:16;;;;;;;;;;;8.50;96.70;;;;;;5066559;28;20389;-86
2022/09/22 05:33:43;;;;;;;;;;;8.50;96.70;;;;;;5104915;28;19968;-88
2022/09/22 05:36:10;;;;;;;;;;;8.40;96.70;;;;;;5086409;28;20412;-84
2022/09/22 05:38:37;;;;;;;;;;;8.40;96.70;;;;;;5087521;28;19932;-83
2022/09/22 05:41:03;;;;;;;;;;;8.40;96.70;;;;;;5069047;28;20420;-84
2022/09/22 05:43:32;;;;;;;;;;;8.30;96.80;;;;;;5089082;28;20018;-83
2022/09/22 05:45:58;;;;;;;;;;;8.30;96.80;;;;;;5089339;28;19955;-83
2022/09/22 05:48:25;;;;;;;;;;;8.30;96.80;;;;;;5076582;28;19943;-83
2022/09/22 05:50:52;;;;;;;;;;;8.30;96.80;;;;;;5065016;28;19975;-83
2022/09/22 05:53:19;;;;;;;;;;;8.30;96.70;;;;;;5074117;28;19932;-84
2022/09/22 05:55:46;;;;;;;;;;;8.30;96.70;;;;;;5090662;28;19923;-84
2022/09/22 05:58:12;;;;;;;;;;;8.30;96.70;;;;;;5082105;28;20394;-84
2022/09/22 06:00:41;;;;;;;;;;;8.30;96.70;;;;;;5089245;28;19932;-84
2022/09/22 06:03:08;;;;;;;;;;;8.30;96.80;;;;;;5069979;28;20011;-82
2022/09/22 06:05:35;;;;;;;;;;;8.30;96.80;;;;;;5084178;28;19929;-82
2022/09/22 06:08:03;;;;;;;;;;;8.20;96.80;;;;;;5091890;28;19924;-83
2022/09/22 06:10:30;;;;;;;;;;;8.20;96.80;;;;;;5066313;28;19993;-84
2022/09/22 06:12:58;;;;;;;;;;;8.20;96.80;;;;;;5069191;28;20003;-83
2022/09/22 06:15:25;;;;;;;;;;;8.20;96.80;;;;;;5088049;28;20109;-84
2022/09/22 06:17:53;;;;;;;;;;;8.20;96.80;;;;;;5087054;28;19974;-81
2022/09/22 06:20:20;;;;;;;;;;;8.20;96.80;;;;;;5081774;28;20280;-82
2022/09/22 06:22:47;;;;;;;;;;;8.20;96.80;;;;;;5076369;28;19928;-81
2022/09/22 06:25:15;;;;;;;;;;;8.20;96.90;;;;;;5077747;28;19924;-83
2022/09/22 06:27:42;;;;;;;;;;;8.20;96.90;;;;;;5081548;28;19928;-84
2022/09/22 06:30:10;;;;;;;;;;;8.10;96.90;;;;;;5090294;28;20305;-83
2022/09/22 06:32:38;;;;;;;;;;;8.10;96.90;;;;;;5088502;28;20306;-83
2022/09/22 06:35:07;;;;;;;;;;;8.10;96.90;;;;;;5094578;28;19941;-83
2022/09/22 06:37:34;;;;;;;;;;;8.10;96.90;;;;;;5102212;27;20375;-82
2022/09/22 06:40:01;;;;;;;;;;;8.10;97.00;;;;;;5089528;28;20016;-84
2022/09/22 06:42:28;;;;;;;;;;;8.10;97.00;;;;;;5062260;28;20413;-84
2022/09/22 06:44:55;;;;;;;;;;;8.20;97.00;;;;;;5084971;28;19940;-83
2022/09/22 06:47:22;;;;;;;;;;;8.10;97.00;;;;;;5077872;28;19986;-83
2022/09/22 06:49:49;;;;;;;;;;;8.10;97.00;;;;;;5086194;28;19928;-84
2022/09/22 06:52:17;;;;;;;;;;;8.10;97.10;;;;;;5088781;28;19919;-83
2022/09/22 06:54:44;;;;;;;;;;;8.10;97.10;;;;;;5085082;28;19928;-84
2022/09/22 06:57:11;;;;;;;;;;;8.00;97.10;;;;;;5083895;28;19928;-84
2022/09/22 06:59:40;;;;;;;;;;;8.00;97.20;;;;;;5085873;28;20406;-82
2022/09/22 07:02:07;;;;;;;;;;;8.00;97.20;;;;;;5076517;28;19931;-84
2022/09/22 07:04:35;;;;;;;;;;;8.00;97.20;;;;;;5090211;28;19965;-83
2022/09/22 07:07:02;;;;;;;;;;;8.10;97.30;;;;;;5073258;28;20022;-81
2022/09/22 07:09:31;;;;;;;;;;;8.10;97.30;;;;;;5088842;28;19924;-83
2022/09/22 07:11:59;;;;;;;;;;;8.10;97.40;;;;;;5084725;28;20389;-82
2022/09/22 07:14:25;;;;;;;;;;;8.10;97.40;;;;;;5074419;28;19947;-84
2022/09/22 07:16:54;;;;;;;;;;;8.10;97.40;;;;;;5073634;28;19924;-82
2022/09/22 07:19:20;;;;;;;;;;;8.10;97.40;;;;;;5082982;28;19924;-82
2022/09/22 07:21:47;;;;;;;;;;;8.10;97.50;;;;;;5089994;28;19970;-84
2022/09/22 07:24:14;;;;;;;;;;;8.10;97.50;;;;;;5086633;28;19967;-84
2022/09/22 07:26:42;;;;;;;;;;;8.10;97.50;;;;;;5069674;28;19969;-83
2022/09/22 07:29:12;;;;;;;;;;;8.10;97.50;;;;;;5084038;28;19924;-84
2022/09/22 07:31:40;;;;;;;;;;;8.10;97.50;;;;;;5090282;28;20472;-83
2022/09/22 07:34:07;;;;;;;;;;;8.10;97.50;;;;;;5086182;28;19928;-84
2022/09/22 07:36:35;;;;;;;;;;;8.10;97.50;;;;;;5080029;28;19928;-84
2022/09/22 07:39:04;;;;;;;;;;;8.10;97.50;;;;;;5085025;28;19965;-81
2022/09/22 07:41:40;;;;;;;;;;;8.10;97.60;;;;;;5068662;28;19950;-84
2022/09/22 07:46:53;;;;;;;;;;;8.10;97.70;;;;;;5084509;28;19924;-84
2022/09/22 07:49:21;;;;;;;;;;;8.00;97.70;;;;;;5067993;28;20011;-84
2022/09/22 07:51:48;;;;;;;;;;;8.10;97.70;;;;;;5081586;28;19992;-80
2022/09/22 07:54:15;;;;;;;;;;;8.10;97.70;;;;;;5084181;28;19956;-84
2022/09/22 07:56:43;;;;;;;;;;;8.10;97.70;;;;;;5084578;28;19924;-85
2022/09/22 07:59:12;;;;;;;;;;;8.10;97.80;;;;;;5084618;28;19924;-82
2022/09/22 08:01:40;;;;;;;;;;;8.10;98.50;;;;;;5066674;28;19951;-82
2022/09/22 08:04:14;;;;;;;;;;;8.20;98.20;;;;;;5079411;28;19931;-85
2022/09/22 08:06:41;;;;;;;;;;;8.20;98.30;;;;;;5075806;28;20015;-84
2022/09/22 08:09:09;;;;;;;;;;;8.20;98.80;;;;;;5098633;28;19923;-83
2022/09/22 08:11:37;;;;;;;;;;;8.20;98.70;;;;;;5087800;28;19932;-83
2022/09/22 08:14:05;;;;;;;;;;;8.20;98.70;;;;;;5083519;28;19930;-84
2022/09/22 08:16:34;;;;;;;;;;;8.20;98.80;;;;;;5105195;28;19931;-83
2022/09/22 08:19:01;;;;;;;;;;;8.30;98.90;;;;;;5074499;28;20023;-83
2022/09/22 08:21:34;;;;;;;;;;;8.30;99.00;;;;;;5090336;28;19928;-83
2022/09/22 08:24:00;;;;;;;;;;;8.30;99.00;;;;;;5092819;28;19955;-83
2022/09/22 08:26:27;;;;;;;;;;;8.20;98.90;;;;;;5077364;28;20810;-85
2022/09/22 08:28:55;;;;;;;;;;;8.30;99.00;;;;;;5092534;28;19932;-83
2022/09/22 08:31:22;;;;;;;;;;;8.30;99.10;;;;;;5096384;28;19931;-85
2022/09/22 08:33:51;;;;;;;;;;;8.30;99.20;;;;;;5092977;28;19979;-84
2022/09/22 08:36:18;;;;;;;;;;;8.30;99.20;;;;;;5085733;28;19932;-83
2022/09/22 08:38:48;;;;;;;;;;;8.40;99.30;;;;;;5088575;28;19924;-84
2022/09/22 08:41:17;;;;;;;;;;;8.30;99.30;;;;;;5074378;28;19959;-84
2022/09/22 08:43:46;;;;;;;;;;;8.40;99.30;;;;;;5068128;28;19924;-83
2022/09/22 08:46:14;;;;;;;;;;;8.40;99.30;;;;;;5078871;28;19932;-84
2022/09/22 08:54:17;;;;;;;;;;;8.40;99.50;;;;;;5094546;28;19928;-83
2022/09/22 08:56:46;;;;;;;;;;;8.40;99.50;;;;;;5075767;28;19924;-83
2022/09/22 08:59:15;;;;;;;;;;;8.50;99.60;;;;;;5074614;28;19924;-82
2022/09/22 09:02:00;;;;;;;;;;;8.50;99.60;;;;;;5112346;27;19925;-84
2022/09/22 09:04:47;;;;;;;;;;;8.50;99.70;;;;;;5091542;28;19929;-84
2022/09/22 09:07:19;;;;;;;;;;;8.50;99.70;;;;;;5088620;28;19950;-84
2022/09/22 09:09:52;;;;;;;;;;;8.50;99.90;;;;;;5092914;28;19924;-84
2022/09/22 09:12:28;;;;;;;;;;;8.60;99.90;;;;;;5090429;28;19971;-82
2022/09/22 09:15:04;;;;;;;;;;;8.60;99.90;;;;;;5091157;28;19985;-82
2022/09/22 09:17:33;;;;;;;;;;;8.60;99.90;;;;;;5087491;28;19938;-83
2022/09/22 09:20:02;;;;;;;;;;;8.60;99.90;;;;;;5096109;28;19924;-85
2022/09/22 09:22:33;;;;;;;;;;;8.60;99.90;;;;;;5101418;28;19928;-83
2022/09/22 09:25:02;;;;;;;;;;;8.60;99.90;;;;;;5094602;28;20394;-84
2022/09/22 09:27:31;;;;;;;;;;;8.70;99.90;;;;;;5096000;28;19946;-83
2022/09/22 09:30:01;;;;;;;;;;;8.70;99.90;;;;;;5096600;28;20633;-85
2022/09/22 09:32:33;;;;;;;;;;;8.70;99.90;;;;;;5077426;28;19924;-84
2022/09/22 09:35:00;;;;;;;;;;;8.70;99.90;;;;;;5074662;28;20400;-82
2022/09/22 09:37:28;;;;;;;;;;;8.70;99.90;;;;;;5096298;28;19928;-84
2022/09/22 09:39:56;;;;;;;;;;;8.70;99.90;;;;;;5073088;28;19924;-84
2022/09/22 09:42:25;;;;;;;;;;;8.80;99.90;;;;;;5097831;28;19928;-84
2022/09/22 09:44:53;;;;;;;;;;;8.80;99.90;;;;;;5091671;28;19972;-85
2022/09/22 09:47:26;;;;;;;;;;;8.80;99.90;;;;;;5077100;28;20512;-85
2022/09/22 09:49:54;;;;;;;;;;;8.80;99.90;;;;;;5088586;28;19959;-83
2022/09/22 09:52:21;;;;;;;;;;;8.90;99.90;;;;;;5091584;28;19924;-85
2022/09/22 09:54:48;;;;;;;;;;;8.90;99.90;;;;;;5073673;28;20380;-83
2022/09/22 09:57:17;;;;;;;;;;;9.00;99.90;;;;;;5074612;28;19947;-84
2022/09/22 10:02:47;;;;;;;;;;;8.90;99.90;;;;;;5100897;28;20409;-85
2022/09/22 10:05:19;;;;;;;;;;;9.00;99.90;;;;;;5085998;28;19958;-84
2022/09/22 10:07:47;;;;;;;;;;;8.90;99.90;;;;;;5094620;28;19932;-84
2022/09/22 10:10:31;;;;;;;;;;;9.00;99.90;;;;;;5077771;28;19924;-84
2022/09/22 10:13:15;;;;;;;;;;;9.00;99.90;;;;;;5090989;28;19946;-82
2022/09/22 10:15:42;;;;;;;;;;;9.00;99.90;;;;;;5084978;28;19973;-82
2022/09/22 10:18:27;;;;;;;;;;;9.10;99.90;;;;;;5089507;28;19932;-81
2022/09/22 10:21:01;;;;;;;;;;;9.10;99.90;;;;;;5092183;28;20449;-81
2022/09/22 10:23:31;;;;;;;;;;;9.10;99.90;;;;;;5105338;27;19963;-81
2022/09/22 10:26:13;;;;;;;;;;;9.10;99.90;;;;;;5105633;27;19923;-81
2022/09/22 10:28:42;;;;;;;;;;;9.20;99.90;;;;;;5093153;28;19928;-82
2022/09/22 10:31:18;;;;;;;;;;;9.20;99.90;;;;;;5087491;28;20238;-81
2022/09/22 10:33:53;;;;;;;;;;;9.20;99.90;;;;;;5072730;28;20479;-81
2022/09/22 10:36:24;;;;;;;;;;;9.20;99.90;;;;;;5088316;28;19976;-80
2022/09/22 10:38:51;;;;;;;;;;;9.20;99.90;;;;;;5093158;28;19929;-85
2022/09/22 10:41:25;;;;;;;;;;;9.30;99.90;;;;;;5089557;28;19955;-82
2022/09/22 10:43:54;;;;;;;;;;;9.30;99.90;;;;;;5085355;28;20014;-82
2022/09/22 10:46:36;;;;;;;;;;;9.30;99.90;;;;;;5092600;28;19985;-82
2022/09/22 10:49:06;;;;;;;;;;;9.30;99.90;;;;;;5067973;28;20404;-82
2022/09/22 10:51:41;;;;;;;;;;;9.30;99.90;;;;;;5069561;28;20306;-83
2022/09/22 10:54:17;;;;;;;;;;;9.40;99.90;;;;;;5089247;28;19932;-82
2022/09/22 10:56:47;;;;;;;;;;;9.40;99.90;;;;;;5085260;28;19928;-85
2022/09/22 10:59:23;;;;;;;;;;;9.40;99.90;;;;;;5081970;28;19963;-84
2022/09/22 11:02:02;;;;;;;;;;;9.40;99.90;;;;;;5079378;28;20190;-84
2022/09/22 11:04:42;;;;;;;;;;;9.40;99.90;;;;;;5073197;28;19928;-84
2022/09/22 11:13:00;;;;;;;;;;;9.50;99.90;;;;;;5068796;28;19984;-84
2022/09/22 11:15:38;;;;;;;;;;;9.50;99.90;;;;;;5075093;28;19986;-84
2022/09/22 11:18:23;;;;;;;;;;;9.60;99.90;;;;;;5086533;28;19950;-84
2022/09/22 11:20:52;;;;;;;;;;;9.60;99.90;;;;;;5084806;28;19932;-84
2022/09/22 11:23:40;;;;;;;;;;;9.60;99.90;;;;;;5084963;28;19968;-85
2022/09/22 11:26:17;;;;;;;;;;;9.70;99.90;;;;;;5091002;28;19928;-84
2022/09/22 11:28:50;;;;;;;;;;;9.70;99.90;;;;;;5101908;27;19931;-84
2022/09/22 11:31:22;;;;;;;;;;;9.70;99.90;;;;;;5085396;28;20054;-84
2022/09/22 11:34:05;;;;;;;;;;;9.70;99.90;;;;;;5089740;28;19991;-85
2022/09/22 11:36:42;;;;;;;;;;;9.80;99.90;;;;;;5088990;28;19924;-83
2022/09/22 11:39:27;;;;;;;;;;;9.80;99.90;;;;;;5086883;28;20397;-84
2022/09/22 11:42:00;;;;;;;;;;;9.80;99.90;;;;;;5085670;28;19924;-83
2022/09/22 11:44:47;;;;;;;;;;;9.80;99.90;;;;;;5099821;28;19955;-83
2022/09/22 11:47:41;;;;;;;;;;;9.80;99.90;;;;;;5052799;28;19924;-85
2022/09/22 11:50:37;;;;;;;;;;;9.90;99.90;;;;;;5052533;28;19935;-87
2022/09/22 11:53:14;;;;;;;;;;;9.90;99.90;;;;;;5075346;28;19997;-84
2022/09/22 11:55:44;;;;;;;;;;;9.90;99.90;;;;;;5076240;28;19928;-83
2022/09/22 11:58:13;;;;;;;;;;;9.90;99.90;;;;;;5085509;28;19928;-85
2022/09/22 12:00:44;;;;;;;;;;;9.90;99.90;;;;;;5067580;28;19930;-87
2022/09/22 12:03:13;;;;;;;;;;;10.00;99.90;;;;;;5074844;28;19942;-86
2022/09/22 12:05:42;;;;;;;;;;;10.00;99.90;;;;;;5082115;28;19936;-87
2022/09/22 12:08:13;;;;;;;;;;;10.00;99.90;;;;;;5070326;28;19978;-86
2022/09/22 12:10:43;;;;;;;;;;;10.00;99.90;;;;;;5094165;28;20066;-85
2022/09/22 12:13:12;;;;;;;;;;;10.10;99.90;;;;;;5087585;28;19932;-86
2022/09/22 12:15:45;;;;;;;;;;;10.10;99.90;;;;;;5077851;28;20021;-86
2022/09/22 12:18:14;;;;;;;;;;;10.10;99.90;;;;;;5076418;28;20573;-88
2022/09/22 12:20:48;;;;;;;;;;;10.20;99.90;;;;;;5065745;28;19928;-87
2022/09/22 12:23:19;;;;;;;;;;;10.20;99.90;;;;;;5096078;28;19925;-85
2022/09/22 12:25:47;;;;;;;;;;;10.20;99.90;;;;;;5085596;28;19947;-86
2022/09/22 12:28:15;;;;;;;;;;;10.20;99.90;;;;;;5073472;28;19985;-85
2022/09/22 12:30:51;;;;;;;;;;;10.40;99.90;;;;;;5091552;28;19934;-87
2022/09/22 12:33:18;;;;;;;;;;;10.30;99.90;;;;;;5070057;28;19932;-86
2022/09/22 12:35:52;;;;;;;;;;;10.30;99.90;;;;;;5057962;28;19997;-85
2022/09/22 12:38:21;;;;;;;;;;;10.30;99.90;;;;;;5089902;28;19928;-87
2022/09/22 12:40:49;;;;;;;;;;;10.40;99.90;;;;;;5083539;28;20005;-87
2022/09/22 12:43:18;;;;;;;;;;;10.40;99.90;;;;;;5088562;28;19924;-87
2022/09/22 12:45:45;;;;;;;;;;;10.50;99.90;;;;;;5082518;28;20205;-87
2022/09/22 12:48:16;;;;;;;;;;;10.50;99.90;;;;;;5080905;28;20011;-86
2022/09/22 12:50:43;;;;;;;;;;;10.50;99.90;;;;;;5076255;28;20019;-87
2022/09/22 12:53:11;;;;;;;;;;;10.60;99.90;;;;;;5080275;28;19935;-87
2022/09/22 12:55:40;;;;;;;;;;;10.60;99.90;;;;;;5086675;28;20302;-86
2022/09/22 12:58:25;;;;;;;;;;;10.70;99.90;;;;;;5083335;28;19974;-87
2022/09/22 13:00:53;;;;;;;;;;;10.70;99.90;;;;;;5082833;28;20544;-86
2022/09/22 13:03:41;;;;;;;;;;;10.70;99.90;;;;;;5077120;28;20027;-87
2022/09/22 13:06:23;;;;;;;;;;;10.80;99.90;;;;;;5067017;28;19964;-86
2022/09/22 13:09:09;;;;;;;;;;;10.90;99.90;;;;;;5082227;28;20426;-87
2022/09/22 13:11:54;;;;;;;;;;;10.80;99.90;;;;;;5094449;27;19986;-87
2022/09/22 13:14:39;;;;;;;;;;;10.90;99.90;;;;;;5105693;27;19942;-86
2022/09/22 13:17:21;;;;;;;;;;;10.90;99.90;;;;;;5084144;28;20378;-87
2022/09/22 13:19:56;;;;;;;;;;;11.00;99.90;;;;;;5076343;28;20006;-88
2022/09/22 13:22:22;;;;;;;;;;;11.00;99.90;;;;;;5064112;28;19928;-88
2022/09/22 13:24:49;;;;;;;;;;;11.10;99.90;;;;;;5083946;28;19932;-87
2022/09/22 13:27:16;;;;;;;;;;;11.10;99.90;;;;;;5082549;28;20020;-86
2022/09/22 13:29:57;;;;;;;;;;;11.20;99.90;;;;;;5092967;28;19928;-87
2022/09/22 13:32:26;;;;;;;;;;;11.20;99.90;;;;;;5072443;28;19924;-87
2022/09/22 13:34:53;;;;;;;;;;;11.20;99.90;;;;;;5078951;28;21200;-88
2022/09/22 13:37:21;;;;;;;;;;;;;;;;;;5089446;28;19935;-88
2022/09/22 13:39:49;;;;;;;;;;;11.40;99.90;;;;;;5088020;28;19932;-89
2022/09/22 13:42:21;;;;;;;;;;;11.40;99.90;;;;;;5068573;28;20358;-79
2022/09/22 13:44:50;;;;;;;;;;;12.60;99.40;;;;;;5090305;28;19955;-80
2022/09/22 13:47:18;;;;;;;;;;;12.90;99.50;;;;;;5082867;28;19943;-79
2022/09/22 13:49:46;;;;;;;;;;;;;;;;;;5087024;28;19966;-79
2022/09/22 13:52:16;;;;;;;;;;;13.40;98.10;;;;;;5066620;28;20467;-80
2022/09/22 13:54:46;;;;;;;;;;;13.70;97.40;;;;;;5069198;28;19928;-78
2022/09/22 13:57:19;;;;;;;;;;;13.80;96.90;;;;;;5086266;28;19950;-78
2022/09/22 13:59:46;;;;;;;;;;;13.80;97.20;;;;;;5082114;28;20271;-80
2022/09/22 14:02:13;;;;;;;;;;;14.00;96.90;;;;;;5083633;28;19931;-79
2022/09/22 14:04:49;;;;;;;;;;;14.20;96.90;;;;;;5088370;28;19932;-80
2022/09/22 14:07:16;;;;;;;;;;;14.30;96.60;;;;;;5084589;28;19967;-80
2022/09/22 14:09:44;;;;;;;;;;;14.40;96.20;;;;;;5086374;28;19924;-79
2022/09/22 14:12:10;;;;;;;;;;;14.40;95.80;;;;;;5084728;28;20006;-79
2022/09/22 14:14:39;;;;;;;;;;;14.40;95.80;;;;;;5067033;28;19971;-80
2022/09/22 14:17:08;;;;;;;;;;;14.50;95.90;;;;;;5082635;28;20027;-80
2022/09/22 14:19:37;;;;;;;;;;;14.60;95.60;;;;;;5065656;28;20020;-80
2022/09/22 14:22:07;;;;;;;;;;;14.80;99.90;;;;;;5073715;28;19947;-79
2022/09/22 14:24:35;;;;;;;;;;;14.80;99.90;;;;;;5084839;28;19922;-79
2022/09/22 14:27:03;;;;;;;;;;;14.80;99.50;;;;;;5076108;28;19933;-80
2022/09/22 14:29:31;;;;;;;;;;;14.90;99.20;;;;;;5086263;28;19924;-80
2022/09/22 14:32:01;;;;;;;;;;;14.90;99.90;;;;;;5087905;28;20402;-78
2022/09/22 14:34:30;;;;;;;;;;;14.90;98.90;;;;;;5076973;28;19924;-77
2022/09/22 14:36:57;;;;;;;;;;;14.80;99.50;;;;;;5082648;28;19932;-79
2022/09/22 14:39:25;;;;;;;;;;;14.90;99.90;;;;;;5072991;28;20026;-79
2022/09/22 14:41:55;;;;;;;;;;;14.90;99.90;;;;;;5078567;28;22111;-78
2022/09/22 14:44:25;;;;;;;;;;;15.00;94.80;;;;;;5084042;28;19928;-79
2022/09/22 14:46:54;;;;;;;;;;;15.00;95.00;;;;;;5081267;28;19931;-78
2022/09/22 14:49:46;;;;;;;;;;;15.00;95.00;;;;;;5082545;28;19925;-79
2022/09/22 14:52:20;;;;;;;;;;;15.00;94.60;;;;;;5067235;28;20737;-79
2022/09/22 14:54:47;;;;;;;;;;;;;;;;;;5099279;27;20608;-80
2022/09/22 14:57:15;;;;;;;;;;;15.10;99.90;;;;;;5078937;28;19935;-79
2022/09/22 15:02:34;;;;;;;;;;;15.10;99.90;;;;;;5107968;27;20013;-79